createdAt,value
2022-12-06T00:02:22.091Z,30.00
2022-12-06T00:04:51.023Z,29.70
2022-12-06T00:07:18.473Z,28.30
2022-12-06T00:09:46.156Z,28.20
2022-12-06T00:12:13.380Z,28.40
2022-12-06T00:14:41.110Z,28.20
2022-12-06T00:17:08.514Z,27.40
2022-12-06T00:19:36.229Z,28.10
2022-12-06T00:22:03.669Z,27.70
2022-12-06T00:24:31.184Z,27.70
2022-12-06T00:26:58.597Z,28.60
2022-12-06T00:29:26.637Z,27.00
2022-12-06T00:31:54.630Z,27.20
2022-12-06T00:34:21.994Z,27.60
2022-12-06T00:36:49.629Z,27.80
2022-12-06T00:39:18.696Z,27.10
2022-12-06T00:41:46.824Z,27.80
2022-12-06T00:44:14.540Z,28.00
2022-12-06T00:46:42.233Z,28.00
2022-12-06T00:49:10.561Z,26.40
2022-12-06T00:51:38.699Z,27.50
2022-12-06T00:54:07.071Z,28.70
2022-12-06T00:56:35.934Z,28.40
2022-12-06T00:59:03.436Z,29.10
2022-12-06T01:01:33.474Z,28.00
2022-12-06T01:04:03.029Z,28.70
2022-12-06T01:06:33.139Z,28.70
2022-12-06T01:09:02.468Z,29.10
2022-12-06T01:11:31.118Z,29.50
2022-12-06T01:13:59.054Z,28.20
2022-12-06T01:16:30.172Z,28.50
2022-12-06T01:18:59.428Z,28.70
2022-12-06T01:21:27.562Z,28.80
2022-12-06T01:23:55.775Z,29.10
2022-12-06T01:26:25.053Z,28.90
2022-12-06T01:28:52.106Z,29.00
2022-12-06T01:31:20.103Z,29.40
2022-12-06T01:33:47.855Z,29.00
2022-12-06T01:36:21.451Z,29.80
2022-12-06T01:38:52.160Z,29.70
2022-12-06T01:41:19.446Z,29.60
2022-12-06T01:43:48.129Z,31.00
2022-12-06T01:46:26.362Z,30.10
2022-12-06T01:48:57.633Z,29.90
2022-12-06T01:51:25.261Z,30.20
2022-12-06T01:53:54.563Z,29.80
2022-12-06T01:56:22.665Z,30.90
2022-12-06T01:58:53.967Z,29.50
2022-12-06T02:01:21.489Z,29.70
2022-12-06T02:03:49.430Z,29.40
2022-12-06T02:06:16.953Z,29.50
2022-12-06T02:08:45.645Z,30.20
2022-12-06T02:11:13.087Z,29.10
2022-12-06T02:13:40.677Z,28.10
2022-12-06T02:16:19.662Z,30.30
2022-12-06T02:18:51.650Z,30.00
2022-12-06T02:21:33.627Z,29.80
2022-12-06T02:24:44.753Z,29.10
2022-12-06T02:27:33.820Z,30.00
2022-12-06T02:30:18.678Z,29.80
2022-12-06T02:32:55.097Z,29.60
2022-12-06T02:37:58.743Z,31.00
2022-12-06T02:40:32.553Z,28.50
2022-12-06T02:43:03.900Z,29.40
2022-12-06T02:45:35.045Z,29.70
2022-12-06T02:48:06.004Z,30.10
2022-12-06T02:50:38.866Z,30.90
2022-12-06T02:53:08.782Z,29.20
2022-12-06T02:55:37.319Z,31.00
2022-12-06T02:58:04.454Z,30.10
2022-12-06T03:00:38.767Z,29.70
2022-12-06T03:03:22.369Z,30.40
2022-12-06T03:06:07.182Z,29.70
2022-12-06T03:08:43.607Z,29.20
2022-12-06T03:11:11.708Z,29.50
2022-12-06T03:13:48.759Z,30.50
2022-12-06T03:16:23.319Z,30.90
2022-12-06T03:18:56.886Z,32.20
2022-12-06T03:21:28.951Z,30.80
2022-12-06T03:23:57.945Z,32.00
2022-12-06T03:26:29.595Z,32.40
2022-12-06T03:29:01.842Z,33.20
2022-12-06T03:31:33.637Z,30.90
2022-12-06T03:34:03.810Z,31.80
2022-12-06T03:36:33.248Z,32.10
2022-12-06T03:39:03.472Z,31.80
2022-12-06T03:41:37.185Z,31.40
2022-12-06T03:44:04.658Z,31.20
2022-12-06T03:46:36.686Z,30.50
2022-12-06T03:49:08.047Z,32.30
2022-12-06T03:51:37.589Z,32.50
2022-12-06T03:54:07.200Z,31.60
2022-12-06T03:56:37.114Z,31.60
2022-12-06T03:59:05.864Z,30.70
2022-12-06T04:01:33.056Z,30.90
2022-12-06T04:04:01.066Z,30.90
2022-12-06T04:06:28.482Z,30.60
2022-12-06T04:09:17.069Z,31.40
2022-12-06T04:11:44.468Z,31.10
2022-12-06T04:14:12.113Z,30.60
2022-12-06T04:16:57.694Z,32.60
2022-12-06T04:19:25.150Z,30.30
2022-12-06T04:22:10.025Z,29.50
2022-12-06T04:24:37.081Z,30.00
2022-12-06T04:27:18.356Z,32.60
2022-12-06T04:30:03.314Z,30.50
2022-12-06T04:32:47.910Z,31.20
2022-12-06T04:35:32.807Z,31.00
2022-12-06T04:38:19.548Z,30.60
2022-12-06T04:40:48.340Z,30.50
2022-12-06T04:43:32.998Z,29.70
2022-12-06T04:46:00.700Z,30.80
2022-12-06T04:48:27.781Z,30.40
2022-12-06T04:50:55.064Z,30.30
2022-12-06T04:53:22.318Z,30.20
2022-12-06T04:55:50.389Z,31.00
2022-12-06T04:58:17.579Z,30.30
2022-12-06T05:00:45.625Z,30.40
2022-12-06T05:03:12.969Z,32.50
2022-12-06T05:05:40.525Z,29.90
2022-12-06T05:08:08.353Z,30.50
2022-12-06T05:10:36.060Z,30.50
2022-12-06T05:13:03.853Z,30.10
2022-12-06T05:15:31.892Z,30.30
2022-12-06T05:17:59.294Z,28.80
2022-12-06T05:20:26.568Z,29.10
2022-12-06T05:22:53.956Z,28.80
2022-12-06T05:25:21.121Z,29.00
2022-12-06T05:27:48.626Z,28.40
2022-12-06T05:30:18.171Z,28.30
2022-12-06T05:32:45.221Z,27.80
2022-12-06T05:35:12.827Z,28.50
2022-12-06T05:37:40.254Z,27.90
2022-12-06T05:40:09.518Z,27.80
2022-12-06T05:42:36.588Z,26.90
2022-12-06T05:45:03.945Z,27.40
2022-12-06T05:47:31.299Z,27.10
2022-12-06T05:49:58.727Z,27.10
2022-12-06T05:52:26.096Z,27.20
2022-12-06T05:54:53.264Z,26.40
2022-12-06T05:57:20.410Z,25.80
2022-12-06T05:59:47.422Z,24.40
2022-12-06T06:02:14.655Z,25.20
2022-12-06T06:04:41.891Z,24.50
2022-12-06T06:07:09.009Z,24.00
2022-12-06T06:09:36.464Z,23.90
2022-12-06T06:12:05.825Z,24.70
2022-12-06T06:14:37.193Z,23.40
2022-12-06T06:17:04.582Z,24.70
2022-12-06T06:19:31.929Z,24.00
2022-12-06T06:21:59.043Z,24.40
2022-12-06T06:24:26.291Z,24.90
2022-12-06T06:26:53.398Z,23.60
2022-12-06T06:29:20.734Z,23.60
2022-12-06T06:31:47.971Z,23.20
2022-12-06T06:34:15.481Z,23.80
2022-12-06T06:36:45.877Z,21.40
2022-12-06T06:39:13.226Z,22.50
2022-12-06T06:41:40.635Z,21.80
2022-12-06T06:44:07.776Z,22.60
2022-12-06T06:46:34.953Z,23.00
2022-12-06T06:49:02.346Z,21.70
2022-12-06T06:51:31.627Z,22.40
2022-12-06T06:53:58.680Z,21.80
2022-12-06T06:56:26.381Z,22.60
2022-12-06T06:58:53.486Z,22.00
2022-12-06T07:01:23.388Z,21.00
2022-12-06T07:03:51.735Z,23.30
2022-12-06T07:06:19.471Z,22.30
2022-12-06T07:08:47.773Z,19.00
2022-12-06T07:11:15.944Z,20.00
2022-12-06T07:13:51.119Z,21.10
2022-12-06T07:18:47.776Z,20.00
2022-12-06T07:21:17.015Z,21.90
2022-12-06T07:23:44.259Z,21.50
2022-12-06T07:26:13.750Z,22.10
2022-12-06T07:28:42.241Z,21.20
2022-12-06T07:31:15.766Z,18.70
2022-12-06T07:33:43.867Z,18.00
2022-12-06T07:36:14.075Z,18.90
2022-12-06T07:38:42.242Z,19.70
2022-12-06T07:41:25.741Z,19.70
2022-12-06T07:44:10.506Z,20.50
2022-12-06T07:46:37.729Z,20.10
2022-12-06T07:49:05.233Z,19.40
2022-12-06T07:51:33.185Z,19.60
2022-12-06T07:54:00.437Z,19.10
2022-12-06T07:56:27.964Z,18.60
2022-12-06T07:58:55.645Z,19.40
2022-12-06T08:01:23.560Z,19.70
2022-12-06T08:03:51.511Z,20.80
2022-12-06T08:06:18.872Z,19.90
2022-12-06T08:08:46.512Z,21.30
2022-12-06T08:11:13.631Z,20.30
2022-12-06T08:13:41.028Z,19.30
2022-12-06T08:16:25.180Z,21.20
2022-12-06T08:18:52.707Z,20.70
2022-12-06T08:21:19.983Z,20.50
2022-12-06T08:23:47.500Z,21.40
2022-12-06T08:26:19.843Z,21.80
2022-12-06T08:28:47.062Z,22.70
2022-12-06T08:31:17.228Z,23.30
2022-12-06T08:33:44.782Z,24.20
2022-12-06T08:36:14.932Z,24.10
2022-12-06T08:38:43.562Z,23.90
2022-12-06T08:41:32.507Z,24.20
2022-12-06T08:44:01.035Z,25.80
2022-12-06T08:46:28.990Z,25.50
2022-12-06T08:48:56.314Z,25.80
2022-12-06T08:51:23.874Z,24.30
2022-12-06T08:53:51.065Z,24.50
2022-12-06T08:56:18.491Z,25.90
2022-12-06T08:58:45.734Z,25.20
2022-12-06T09:01:17.761Z,25.50
2022-12-06T09:03:45.693Z,25.20
2022-12-06T09:06:14.045Z,25.30
2022-12-06T09:08:41.402Z,26.50
2022-12-06T09:11:09.778Z,27.50
2022-12-06T09:13:38.244Z,27.10
2022-12-06T09:16:08.981Z,26.30
2022-12-06T09:18:36.966Z,27.70
2022-12-06T09:21:08.015Z,27.00
2022-12-06T09:23:36.490Z,26.00
2022-12-06T09:26:04.456Z,26.80
2022-12-06T09:28:32.989Z,26.00
2022-12-06T09:31:00.671Z,26.40
2022-12-06T09:33:28.159Z,26.60
2022-12-06T09:35:55.361Z,26.30
2022-12-06T09:38:25.532Z,25.30
2022-12-06T09:41:10.535Z,24.10
2022-12-06T09:43:52.093Z,26.00
2022-12-06T09:46:33.631Z,24.60
2022-12-06T09:49:30.319Z,23.90
2022-12-06T09:52:20.978Z,25.30
2022-12-06T09:55:02.102Z,26.00
2022-12-06T09:57:37.462Z,25.30
2022-12-06T10:00:11.647Z,25.40
2022-12-06T10:02:57.710Z,26.60
2022-12-06T10:05:54.218Z,27.70
2022-12-06T10:08:33.726Z,28.40
2022-12-06T10:11:08.832Z,28.50
2022-12-06T10:13:52.504Z,28.40
2022-12-06T10:16:45.022Z,28.70
2022-12-06T10:19:26.550Z,27.60
2022-12-06T10:22:04.026Z,30.20
2022-12-06T10:24:50.329Z,30.30
2022-12-06T10:27:24.366Z,29.30
2022-12-06T10:29:58.962Z,30.90
2022-12-06T10:32:49.909Z,31.90
2022-12-06T10:35:25.739Z,31.80
2022-12-06T10:38:12.586Z,31.70
2022-12-06T10:40:51.154Z,32.40
2022-12-06T10:43:25.152Z,31.70
2022-12-06T10:46:18.905Z,32.00
2022-12-06T10:48:57.134Z,32.70
2022-12-06T10:51:31.802Z,32.80
2022-12-06T10:54:04.906Z,30.70
2022-12-06T10:56:36.361Z,30.10
2022-12-06T10:59:22.001Z,29.90
2022-12-06T11:01:50.470Z,31.60
2022-12-06T11:04:25.578Z,30.80
2022-12-06T11:06:55.641Z,29.10
2022-12-06T11:09:31.801Z,29.40
2022-12-06T11:11:59.871Z,27.30
2022-12-06T11:14:31.847Z,27.00
2022-12-06T11:17:03.696Z,26.30
2022-12-06T11:19:34.918Z,28.00
2022-12-06T11:22:13.049Z,26.60
2022-12-06T11:24:49.573Z,27.40
2022-12-06T11:27:23.014Z,28.50
2022-12-06T11:29:51.822Z,28.60
2022-12-06T11:32:20.182Z,27.00
2022-12-06T11:34:52.579Z,27.80
2022-12-06T11:37:22.644Z,28.10
2022-12-06T11:39:52.995Z,28.40
2022-12-06T11:42:24.901Z,28.70
2022-12-06T11:44:59.610Z,27.20
2022-12-06T11:47:27.724Z,27.00
2022-12-06T11:50:00.391Z,25.70
2022-12-06T11:52:37.934Z,25.20
2022-12-06T11:55:16.043Z,23.30
2022-12-06T11:57:47.800Z,25.90
2022-12-06T12:00:19.551Z,23.90
2022-12-06T12:02:48.698Z,25.30
2022-12-06T12:05:22.568Z,26.40
2022-12-06T12:07:53.419Z,25.90
2022-12-06T12:10:35.001Z,26.20
2022-12-06T12:13:35.522Z,28.60
2022-12-06T12:16:07.753Z,28.80
2022-12-06T12:18:37.634Z,27.00
2022-12-06T12:21:08.205Z,28.40
2022-12-06T12:23:38.461Z,33.40
2022-12-06T12:26:13.197Z,35.50
2022-12-06T12:28:42.226Z,29.50
2022-12-06T12:31:18.822Z,27.10
2022-12-06T12:33:46.935Z,28.60
2022-12-06T12:36:21.654Z,27.50
2022-12-06T12:38:55.563Z,29.20
2022-12-06T12:41:32.444Z,27.70
2022-12-06T12:44:35.921Z,28.70
2022-12-06T12:46:55.716Z,29.90
2022-12-06T12:49:29.730Z,29.30
2022-12-06T12:51:57.495Z,32.00
2022-12-06T12:54:31.609Z,30.90
2022-12-06T12:57:00.502Z,29.40
2022-12-06T12:59:34.215Z,30.80
2022-12-06T13:02:12.818Z,27.90
2022-12-06T13:04:43.715Z,29.80
2022-12-06T13:07:20.031Z,31.00
2022-12-06T13:09:56.668Z,30.10
2022-12-06T13:12:30.310Z,33.60
2022-12-06T13:15:04.157Z,33.10
2022-12-06T13:17:37.229Z,32.70
2022-12-06T13:20:16.187Z,35.70
2022-12-06T13:22:45.631Z,32.80
2022-12-06T13:25:14.928Z,33.30
2022-12-06T13:27:44.801Z,32.30
2022-12-06T13:30:18.090Z,32.90
2022-12-06T13:32:50.410Z,33.00
2022-12-06T13:35:26.939Z,32.70
2022-12-06T13:37:59.041Z,34.10
2022-12-06T13:40:51.561Z,35.90
2022-12-06T13:43:52.736Z,35.50
2022-12-06T13:46:34.502Z,35.90
2022-12-06T13:49:04.001Z,35.60
2022-12-06T13:51:51.172Z,34.20
2022-12-06T13:54:38.171Z,34.80
2022-12-06T13:57:29.958Z,34.50
2022-12-06T13:59:57.586Z,33.60
2022-12-06T14:02:54.079Z,31.80
2022-12-06T14:08:23.507Z,34.90
2022-12-06T14:10:50.887Z,33.20
2022-12-06T14:13:21.461Z,32.80
2022-12-06T14:15:53.434Z,33.10
2022-12-06T14:18:27.698Z,32.70
2022-12-06T14:20:58.628Z,32.60
2022-12-06T14:23:32.791Z,31.10
2022-12-06T14:26:19.791Z,31.30
2022-12-06T14:28:47.681Z,34.30
2022-12-06T14:31:29.527Z,32.60
2022-12-06T14:33:57.940Z,31.60
2022-12-06T14:36:29.041Z,30.20
2022-12-06T14:39:00.859Z,33.10
2022-12-06T14:41:52.527Z,32.60
2022-12-06T14:44:21.879Z,32.00
2022-12-06T14:46:51.205Z,31.70
2022-12-06T14:49:38.764Z,31.70
2022-12-06T14:52:19.682Z,32.70
2022-12-06T14:54:48.320Z,32.90
2022-12-06T14:57:26.529Z,31.70
2022-12-06T15:00:15.233Z,33.70
2022-12-06T15:03:03.493Z,34.30
2022-12-06T15:05:37.547Z,33.20
2022-12-06T15:08:31.420Z,33.60
2022-12-06T15:11:00.527Z,32.80
2022-12-06T15:13:29.097Z,34.50
2022-12-06T15:16:06.654Z,33.10
2022-12-06T15:18:37.035Z,32.70
2022-12-06T15:21:04.477Z,31.80
2022-12-06T15:23:38.548Z,33.60
2022-12-06T15:26:07.188Z,32.90
2022-12-06T15:28:35.822Z,31.60
2022-12-06T15:31:04.114Z,32.70
2022-12-06T15:33:31.697Z,31.60
2022-12-06T15:35:59.730Z,32.70
2022-12-06T15:38:27.434Z,30.30
2022-12-06T15:40:55.893Z,29.90
2022-12-06T15:43:32.688Z,31.30
2022-12-06T15:46:02.448Z,32.10
2022-12-06T15:48:30.370Z,33.30
2022-12-06T15:50:58.237Z,32.80
2022-12-06T15:53:26.331Z,31.90
2022-12-06T15:55:54.149Z,31.20
2022-12-06T15:58:22.905Z,29.10
2022-12-06T16:00:50.579Z,31.20
2022-12-06T16:03:18.095Z,29.00
2022-12-06T16:05:45.286Z,28.80
2022-12-06T16:08:12.456Z,27.70
2022-12-06T16:11:10.304Z,28.50
2022-12-06T16:13:26.905Z,28.20
2022-12-06T16:15:54.896Z,28.10
2022-12-06T16:18:22.533Z,29.00
2022-12-06T16:20:50.195Z,29.60
2022-12-06T16:24:04.556Z,28.90
2022-12-06T16:26:24.494Z,27.80
2022-12-06T16:28:51.748Z,28.10
2022-12-06T16:31:18.963Z,27.60
2022-12-06T16:33:46.280Z,27.10
2022-12-06T16:36:18.853Z,27.10
2022-12-06T16:38:46.129Z,26.80
2022-12-06T16:41:22.001Z,27.10
2022-12-06T16:43:50.179Z,26.80
2022-12-06T16:46:27.759Z,27.00
2022-12-06T16:49:10.675Z,27.50
2022-12-06T16:51:47.277Z,26.10
2022-12-06T16:54:14.579Z,24.80
2022-12-06T16:56:42.090Z,22.30
2022-12-06T16:59:10.594Z,23.70
2022-12-06T17:01:47.124Z,21.70
2022-12-06T17:04:14.373Z,20.20
2022-12-06T17:06:41.737Z,19.60
2022-12-06T17:09:08.887Z,19.00
2022-12-06T17:11:54.655Z,19.10
2022-12-06T17:14:25.318Z,17.40
2022-12-06T17:16:53.283Z,17.30
2022-12-06T17:19:23.054Z,19.00
2022-12-06T17:21:51.880Z,18.10
2022-12-06T17:24:20.401Z,18.00
2022-12-06T17:26:47.919Z,18.40
2022-12-06T17:29:15.100Z,20.00
2022-12-06T17:31:43.006Z,20.80
2022-12-06T17:34:12.469Z,19.40
2022-12-06T17:36:40.391Z,19.70
2022-12-06T17:39:10.870Z,20.20
2022-12-06T17:41:55.733Z,19.00
2022-12-06T17:44:23.527Z,19.20
2022-12-06T17:46:51.410Z,19.00
2022-12-06T17:49:20.293Z,18.90
2022-12-06T17:51:47.972Z,19.90
2022-12-06T17:54:15.475Z,18.50
2022-12-06T17:56:44.538Z,19.10
2022-12-06T17:59:14.121Z,19.90
2022-12-06T18:02:13.700Z,19.30
2022-12-06T18:04:30.742Z,18.90
2022-12-06T18:06:58.582Z,18.70
2022-12-06T18:09:26.161Z,18.80
2022-12-06T18:11:53.524Z,18.20
2022-12-06T18:14:20.832Z,18.40
2022-12-06T18:16:49.173Z,18.50
2022-12-06T18:19:18.619Z,20.50
2022-12-06T18:21:46.594Z,20.00
2022-12-06T18:24:25.741Z,19.40
2022-12-06T18:26:55.292Z,17.60
2022-12-06T18:29:24.332Z,18.80
2022-12-06T18:31:52.918Z,19.10
2022-12-06T18:34:20.884Z,19.40
2022-12-06T18:36:48.582Z,19.00
2022-12-06T18:39:17.294Z,19.30
2022-12-06T18:41:45.073Z,20.50
2022-12-06T18:44:14.392Z,21.10
2022-12-06T18:46:42.964Z,20.50
2022-12-06T18:49:10.848Z,19.10
2022-12-06T18:51:39.092Z,20.50
2022-12-06T18:54:07.175Z,21.30
2022-12-06T18:56:36.337Z,22.10
2022-12-06T18:59:05.599Z,24.40
2022-12-06T19:01:34.894Z,26.10
2022-12-06T19:04:04.189Z,26.00
2022-12-06T19:06:34.131Z,28.20
2022-12-06T19:09:06.399Z,29.20
2022-12-06T19:11:36.555Z,31.60
2022-12-06T19:14:03.860Z,32.10
2022-12-06T19:16:34.770Z,31.60
2022-12-06T19:19:03.908Z,33.60
2022-12-06T19:21:32.424Z,31.60
2022-12-06T19:24:00.179Z,30.60
2022-12-06T19:26:29.220Z,32.70
2022-12-06T19:28:56.419Z,32.60
2022-12-06T19:31:24.397Z,32.80
2022-12-06T19:33:52.904Z,31.60
2022-12-06T19:36:25.396Z,27.70
2022-12-06T19:38:57.991Z,25.60
2022-12-06T19:41:25.334Z,25.20
2022-12-06T19:44:10.713Z,25.40
2022-12-06T19:46:39.150Z,26.10
2022-12-06T19:49:07.728Z,24.70
2022-12-06T19:51:35.246Z,24.00
2022-12-06T19:54:02.799Z,23.10
2022-12-06T19:56:31.007Z,25.10
2022-12-06T19:58:59.813Z,23.70
2022-12-06T20:01:30.242Z,24.60
2022-12-06T20:03:58.047Z,23.10
2022-12-06T20:06:27.695Z,24.30
2022-12-06T20:08:57.238Z,23.60
2022-12-06T20:11:45.751Z,22.10
2022-12-06T20:14:15.296Z,23.90
2022-12-06T20:16:43.426Z,24.30
2022-12-06T20:19:11.590Z,26.70
2022-12-06T20:21:39.433Z,24.10
2022-12-06T20:24:07.230Z,24.60
2022-12-06T20:26:35.504Z,26.00
2022-12-06T20:29:03.213Z,29.10
2022-12-06T20:31:31.981Z,30.10
2022-12-06T20:34:00.841Z,32.10
2022-12-06T20:36:28.830Z,32.80
2022-12-06T20:38:56.869Z,33.10
2022-12-06T20:41:25.753Z,34.90
2022-12-06T20:43:53.699Z,37.80
2022-12-06T20:46:25.072Z,39.30
2022-12-06T20:48:53.197Z,38.80
2022-12-06T20:51:22.572Z,38.80
2022-12-06T20:53:50.140Z,38.30
2022-12-06T20:56:20.304Z,40.20
2022-12-06T20:58:48.777Z,40.20
2022-12-06T21:01:19.210Z,39.90
2022-12-06T21:03:46.900Z,38.80
2022-12-06T21:06:14.779Z,39.70
2022-12-06T21:08:42.689Z,28.80
2022-12-06T21:11:25.957Z,28.80
2022-12-06T21:13:54.380Z,29.90
2022-12-06T21:16:23.635Z,27.80
2022-12-06T21:18:54.870Z,28.10
2022-12-06T21:21:27.415Z,25.20
2022-12-06T21:23:54.741Z,26.10
2022-12-06T21:26:22.136Z,23.20
2022-12-06T21:28:49.298Z,26.60
2022-12-06T21:31:16.436Z,24.00
2022-12-06T21:33:43.509Z,25.80
2022-12-06T21:36:11.998Z,25.80
2022-12-06T21:38:39.179Z,25.60
2022-12-06T21:41:12.718Z,25.50
2022-12-06T21:43:40.476Z,25.20
2022-12-06T21:46:09.995Z,21.30
2022-12-06T21:48:37.522Z,17.70
2022-12-06T21:51:07.398Z,19.80
2022-12-06T21:53:35.253Z,20.70
2022-12-06T21:56:05.754Z,22.60
2022-12-06T21:58:32.817Z,21.70
2022-12-06T22:01:06.754Z,20.50
2022-12-06T22:03:33.967Z,19.20
2022-12-06T22:06:04.065Z,20.90
2022-12-06T22:08:31.219Z,20.30
2022-12-06T22:10:58.494Z,21.40
2022-12-06T22:13:25.885Z,18.20
2022-12-06T22:15:53.117Z,17.60
2022-12-06T22:18:20.210Z,17.20
2022-12-06T22:20:56.652Z,16.80
2022-12-06T22:23:24.170Z,14.70
2022-12-06T22:25:51.261Z,14.60
2022-12-06T22:28:18.652Z,13.70
2022-12-06T22:30:45.769Z,14.50
2022-12-06T22:33:12.858Z,14.70
2022-12-06T22:35:43.236Z,15.50
2022-12-06T22:38:10.391Z,14.30
2022-12-06T22:40:37.560Z,15.30
2022-12-06T22:43:10.705Z,15.40
2022-12-06T22:45:37.804Z,15.40
2022-12-06T22:48:05.011Z,14.70
2022-12-06T22:50:32.145Z,15.40
2022-12-06T22:52:59.274Z,14.70
2022-12-06T22:55:26.338Z,15.10
2022-12-06T22:57:53.424Z,17.00
2022-12-06T23:00:21.805Z,17.80
2022-12-06T23:02:48.965Z,17.40
2022-12-06T23:05:16.201Z,17.60
2022-12-06T23:07:43.446Z,18.30
2022-12-06T23:10:13.755Z,18.60
2022-12-06T23:12:41.500Z,19.40
2022-12-06T23:15:10.278Z,20.20
2022-12-06T23:17:39.184Z,20.30
2022-12-06T23:20:08.106Z,21.80
2022-12-06T23:22:35.661Z,22.70
2022-12-06T23:25:02.761Z,22.50
2022-12-06T23:27:29.952Z,21.60
2022-12-06T23:29:57.002Z,20.20
2022-12-06T23:32:23.984Z,20.20
2022-12-06T23:34:51.263Z,21.90
2022-12-06T23:37:18.327Z,20.70
2022-12-06T23:39:45.800Z,20.90
2022-12-06T23:42:12.944Z,21.50
2022-12-06T23:44:40.233Z,20.60
2022-12-06T23:47:07.759Z,20.90
2022-12-06T23:49:34.917Z,22.50
2022-12-06T23:52:02.064Z,21.90
2022-12-06T23:54:29.153Z,23.40
2022-12-06T23:56:56.398Z,22.70
2022-12-06T23:59:23.547Z,23.80
